Time,TemperatureF,DewpointF,PressureIn,WindDirection,WindDirectionDegrees,WindSpeedMPH,WindSpeedGustMPH,Humidity,HourlyPrecipIn,Conditions,Clouds,dailyrainin,SoftwareType,DateUTC
2013-04-18 00:03:00,66.0,66.0,29.90,South,180,5.0,9.0,100,0.00,,,0.86,,2013-04-18 04:03:00,
2013-04-18 00:13:00,66.0,66.0,29.90,South,180,5.0,9.0,100,0.00,,,0.86,,2013-04-18 04:13:00,
2013-04-18 00:23:00,66.0,66.0,29.90,South,180,4.0,7.0,100,0.00,,,0.86,,2013-04-18 04:23:00,
2013-04-18 00:33:00,66.0,66.0,29.90,SSE,157,5.0,8.0,100,0.00,,,0.86,,2013-04-18 04:33:00,
2013-04-18 00:43:00,66.0,66.0,29.90,SE,135,5.0,7.0,100,0.00,,,0.86,,2013-04-18 04:43:00,
2013-04-18 00:53:00,66.0,66.0,29.90,SE,135,5.0,7.0,100,0.00,,,0.86,,2013-04-18 04:53:00,
2013-04-18 01:02:00,66.0,66.0,29.89,SE,135,3.0,6.0,100,0.00,,,0.86,,2013-04-18 05:02:00,
2013-04-18 01:12:00,66.0,66.0,29.88,SE,135,4.0,8.0,100,0.00,,,0.86,,2013-04-18 05:12:00,
2013-04-18 01:22:00,66.0,66.0,29.88,SE,135,4.0,8.0,100,0.00,,,0.86,,2013-04-18 05:22:00,
2013-04-18 01:32:00,66.0,66.0,29.88,SE,135,3.0,6.0,100,0.00,,,0.86,,2013-04-18 05:32:00,
2013-04-18 01:42:00,66.0,66.0,29.88,SE,135,3.0,6.0,100,0.00,,,0.86,,2013-04-18 05:42:00,
2013-04-18 01:52:00,66.0,66.0,29.88,SE,135,3.0,6.0,100,0.00,,,0.86,,2013-04-18 05:52:00,
2013-04-18 02:02:00,66.0,65.0,29.87,SSE,157,6.0,10.0,98,0.00,,,0.86,,2013-04-18 06:02:00,
2013-04-18 02:12:00,66.0,65.0,29.87,SSE,157,6.0,10.0,98,0.00,,,0.86,,2013-04-18 06:12:00,
2013-04-18 02:22:00,66.0,65.0,29.87,SSE,157,6.0,10.0,98,0.00,,,0.86,,2013-04-18 06:22:00,
2013-04-18 02:32:00,66.0,66.0,29.87,SE,135,4.0,6.0,99,0.00,,,0.86,,2013-04-18 06:32:00,
2013-04-18 02:42:00,66.0,66.0,29.87,SE,135,2.0,6.0,99,0.00,,,0.86,,2013-04-18 06:42:00,
2013-04-18 02:52:00,66.0,66.0,29.87,SE,135,2.0,6.0,99,0.00,,,0.86,,2013-04-18 06:52:00,
2013-04-18 03:02:00,66.0,66.0,29.85,SE,135,5.0,8.0,100,0.00,,,0.86,,2013-04-18 07:02:00,
2013-04-18 03:12:00,66.0,66.0,29.85,SE,135,2.0,5.0,100,0.00,,,0.81,,2013-04-18 07:12:00,
2013-04-18 03:22:00,66.0,66.0,29.85,SE,135,2.0,5.0,100,0.00,,,0.81,,2013-04-18 07:22:00,
2013-04-18 03:32:00,66.0,66.0,29.84,ESE,112,5.0,8.0,99,0.00,,,0.43,,2013-04-18 07:32:00,
2013-04-18 03:42:00,66.0,65.0,29.84,SE,135,4.0,7.0,98,0.00,,,0.43,,2013-04-18 07:42:00,
2013-04-18 03:52:00,66.0,65.0,29.84,SE,135,4.0,7.0,98,0.00,,,0.43,,2013-04-18 07:52:00,
2013-04-18 04:02:00,67.0,66.0,29.83,SE,135,5.0,9.0,98,0.00,,,0.42,,2013-04-18 08:02:00,
2013-04-18 04:12:00,67.0,66.0,29.83,SSE,157,4.0,7.0,98,0.00,,,0.42,,2013-04-18 08:12:00,
2013-04-18 04:22:00,67.0,66.0,29.83,SSE,157,4.0,7.0,98,0.00,,,0.42,,2013-04-18 08:22:00,
2013-04-18 04:32:00,66.0,65.0,29.83,SSE,157,2.0,4.0,98,0.00,,,0.27,,2013-04-18 08:32:00,
2013-04-18 04:42:00,66.0,66.0,29.83,SSE,157,3.0,6.0,99,0.00,,,0.10,,2013-04-18 08:42:00,
2013-04-18 04:52:00,66.0,66.0,29.83,SSE,157,3.0,6.0,99,0.00,,,0.10,,2013-04-18 08:52:00,
2013-04-18 05:02:00,66.0,66.0,29.82,SE,135,4.0,6.0,100,0.00,,,0.09,,2013-04-18 09:02:00,
2013-04-18 05:12:00,65.0,65.0,29.82,SSE,157,5.0,6.0,100,0.00,,,0.09,,2013-04-18 09:12:00,
2013-04-18 05:22:00,65.0,65.0,29.82,SSE,157,5.0,6.0,100,0.00,,,0.09,,2013-04-18 09:22:00,
2013-04-18 05:32:00,65.0,65.0,29.82,SSE,157,4.0,6.0,100,0.00,,,0.09,,2013-04-18 09:32:00,
2013-04-18 05:42:00,65.0,65.0,29.81,South,180,4.0,7.0,100,0.00,,,0.09,,2013-04-18 09:42:00,
2013-04-18 05:53:00,65.0,65.0,29.81,South,180,4.0,7.0,100,0.00,,,0.09,,2013-04-18 09:53:00,
2013-04-18 06:03:00,66.0,66.0,29.80,South,180,3.0,7.0,100,0.00,,,0.09,,2013-04-18 10:03:00,
2013-04-18 06:12:00,66.0,66.0,29.80,South,180,3.0,7.0,100,0.00,,,0.09,,2013-04-18 10:12:00,
2013-04-18 06:23:00,66.0,66.0,29.80,South,180,3.0,6.0,100,0.00,,,0.09,,2013-04-18 10:23:00,
2013-04-18 06:32:00,66.0,66.0,29.81,South,180,5.0,9.0,100,0.00,,,0.09,,2013-04-18 10:32:00,
2013-04-18 06:42:00,66.0,66.0,29.81,South,180,5.0,9.0,100,0.00,,,0.09,,2013-04-18 10:42:00,
2013-04-18 06:52:00,66.0,66.0,29.81,South,180,5.0,9.0,100,0.00,,,0.09,,2013-04-18 10:52:00,
2013-04-18 07:02:00,66.0,66.0,29.81,South,180,4.0,6.0,100,0.00,,,0.09,,2013-04-18 11:02:00,
2013-04-18 07:12:00,67.0,67.0,29.82,SSE,157,4.0,9.0,100,0.00,,,0.09,,2013-04-18 11:12:00,
2013-04-18 07:22:00,67.0,67.0,29.82,SSE,157,4.0,9.0,100,0.00,,,0.09,,2013-04-18 11:22:00,
2013-04-18 07:32:00,67.0,67.0,29.82,SSE,157,4.0,5.0,100,0.00,,,0.09,,2013-04-18 11:32:00,
2013-04-18 07:42:00,67.0,67.0,29.82,SE,135,4.0,6.0,100,0.00,,,0.09,,2013-04-18 11:42:00,
2013-04-18 07:52:00,67.0,67.0,29.82,SE,135,4.0,6.0,100,0.00,,,0.09,,2013-04-18 11:52:00,
2013-04-18 08:02:00,67.0,67.0,29.83,South,180,2.0,3.0,100,0.00,,,0.09,,2013-04-18 12:02:00,
2013-04-18 08:12:00,69.0,69.0,29.82,SSE,157,6.0,9.0,100,0.00,,,0.09,,2013-04-18 12:12:00,
2013-04-18 08:22:00,69.0,69.0,29.82,SSE,157,6.0,9.0,100,0.00,,,0.09,,2013-04-18 12:22:00,
2013-04-18 08:32:00,70.0,70.0,29.84,South,180,4.0,6.0,100,0.00,,,0.09,,2013-04-18 12:32:00,
2013-04-18 08:42:00,70.0,70.0,29.84,South,180,4.0,6.0,100,0.00,,,0.09,,2013-04-18 12:42:00,
2013-04-18 08:52:00,70.0,70.0,29.84,South,180,4.0,6.0,100,0.00,,,0.09,,2013-04-18 12:52:00,
2013-04-18 09:02:00,72.0,70.0,29.84,SW,225,6.0,8.0,94,0.00,,,0.09,,2013-04-18 13:02:00,
2013-04-18 09:12:00,72.0,70.0,29.84,ESE,112,6.0,10.0,92,0.00,,,0.09,,2013-04-18 13:12:00,
2013-04-18 09:22:00,72.0,70.0,29.84,ESE,112,6.0,10.0,92,0.00,,,0.09,,2013-04-18 13:22:00,
2013-04-18 09:32:00,73.0,69.0,29.84,South,180,6.0,12.0,87,0.00,,,0.09,,2013-04-18 13:32:00,
2013-04-18 09:42:00,74.0,69.0,29.84,SW,225,6.0,9.0,84,0.00,,,0.09,,2013-04-18 13:42:00,
2013-04-18 09:52:00,74.0,69.0,29.84,SW,225,6.0,9.0,84,0.00,,,0.09,,2013-04-18 13:52:00,
2013-04-18 10:02:00,74.0,68.0,29.84,South,180,6.0,13.0,82,0.00,,,0.09,,2013-04-18 14:02:00,
2013-04-18 10:12:00,74.0,67.0,29.83,SW,225,6.0,12.0,79,0.00,,,0.09,,2013-04-18 14:12:00,
2013-04-18 10:22:00,74.0,67.0,29.83,SW,225,6.0,12.0,79,0.00,,,0.09,,2013-04-18 14:22:00,
2013-04-18 10:32:00,74.0,67.0,29.84,South,180,6.0,11.0,78,0.00,,,0.09,,2013-04-18 14:32:00,
2013-04-18 10:42:00,75.0,67.0,29.84,SSE,157,5.0,7.0,75,0.00,,,0.09,,2013-04-18 14:42:00,
2013-04-18 10:52:00,75.0,67.0,29.84,SSE,157,5.0,7.0,75,0.00,,,0.09,,2013-04-18 14:52:00,
2013-04-18 11:02:00,75.0,67.0,29.83,SW,225,7.0,12.0,75,0.00,,,0.09,,2013-04-18 15:02:00,
2013-04-18 11:12:00,75.0,67.0,29.83,SW,225,7.0,12.0,75,0.00,,,0.09,,2013-04-18 15:12:00,
2013-04-18 11:22:00,76.0,67.0,29.84,South,180,7.0,9.0,74,0.00,,,0.09,,2013-04-18 15:22:00,
2013-04-18 11:33:00,76.0,67.0,29.83,SSW,202,8.0,15.0,74,0.00,,,0.09,,2013-04-18 15:33:00,
2013-04-18 11:42:00,78.0,67.0,29.83,SW,225,4.0,7.0,69,0.00,,,0.09,,2013-04-18 15:42:00,
2013-04-18 11:53:00,78.0,67.0,29.83,SW,225,4.0,7.0,69,0.00,,,0.09,,2013-04-18 15:53:00,
2013-04-18 12:03:00,78.0,67.0,29.83,South,180,6.0,12.0,68,0.00,,,0.09,,2013-04-18 16:03:00,
2013-04-18 12:13:00,80.0,66.0,29.83,SSW,202,7.0,10.0,62,0.00,,,0.09,,2013-04-18 16:13:00,
2013-04-18 12:23:00,80.0,66.0,29.83,SSW,202,7.0,10.0,62,0.00,,,0.09,,2013-04-18 16:23:00,
2013-04-18 12:33:00,80.0,65.0,29.83,South,180,8.0,15.0,60,0.00,,,0.09,,2013-04-18 16:33:00,
2013-04-18 12:43:00,80.0,65.0,29.82,SSW,202,6.0,13.0,60,0.00,,,0.09,,2013-04-18 16:43:00,
2013-04-18 12:53:00,80.0,65.0,29.82,SSW,202,6.0,13.0,60,0.00,,,0.09,,2013-04-18 16:53:00,
2013-04-18 13:02:00,80.0,64.0,29.82,SSE,157,8.0,15.0,58,0.00,,,0.09,,2013-04-18 17:02:00,
2013-04-18 13:12:00,81.0,65.0,29.81,South,180,7.0,12.0,59,0.00,,,0.09,,2013-04-18 17:12:00,
2013-04-18 13:22:00,81.0,65.0,29.81,South,180,7.0,12.0,59,0.00,,,0.09,,2013-04-18 17:22:00,
2013-04-18 13:33:00,82.0,67.0,29.81,SE,135,7.0,13.0,60,0.00,,,0.09,,2013-04-18 17:33:00,
2013-04-18 13:42:00,81.0,64.0,29.81,SW,225,6.0,9.0,57,0.00,,,0.09,,2013-04-18 17:42:00,
2013-04-18 13:52:00,81.0,64.0,29.81,SW,225,6.0,9.0,57,0.00,,,0.09,,2013-04-18 17:52:00,
2013-04-18 14:02:00,81.0,64.0,29.80,SSE,157,8.0,14.0,56,0.00,,,0.09,,2013-04-18 18:02:00,
2013-04-18 14:12:00,81.0,63.0,29.79,SSW,202,8.0,15.0,54,0.00,,,0.09,,2013-04-18 18:12:00,
2013-04-18 14:22:00,81.0,63.0,29.79,SSW,202,8.0,15.0,54,0.00,,,0.09,,2013-04-18 18:22:00,
2013-04-18 14:32:00,82.0,63.0,29.78,SSE,157,6.0,10.0,53,0.00,,,0.09,,2013-04-18 18:32:00,
2013-04-18 14:42:00,82.0,63.0,29.78,South,180,7.0,25.0,52,0.00,,,0.09,,2013-04-18 18:42:00,
2013-04-18 14:52:00,82.0,63.0,29.78,South,180,7.0,25.0,52,0.00,,,0.09,,2013-04-18 18:52:00,
2013-04-18 15:02:00,81.0,62.0,29.77,SW,225,8.0,10.0,53,0.00,,,0.09,,2013-04-18 19:02:00,
2013-04-18 15:12:00,81.0,62.0,29.77,SW,225,8.0,10.0,53,0.00,,,0.09,,2013-04-18 19:12:00,
2013-04-18 15:22:00,81.0,62.0,29.77,SW,225,8.0,10.0,53,0.00,,,0.09,,2013-04-18 19:22:00,
2013-04-18 15:32:00,80.0,62.0,29.77,South,180,5.0,10.0,54,0.00,,,0.09,,2013-04-18 19:32:00,
2013-04-18 15:42:00,80.0,61.0,29.76,SW,225,4.0,11.0,52,0.00,,,0.09,,2013-04-18 19:42:00,
2013-04-18 15:53:00,80.0,61.0,29.76,SW,225,4.0,11.0,52,0.00,,,0.09,,2013-04-18 19:53:00,
2013-04-18 16:02:00,79.0,60.0,29.75,South,180,6.0,12.0,52,0.00,,,0.09,,2013-04-18 20:02:00,
2013-04-18 16:12:00,79.0,59.0,29.75,SSW,202,7.0,10.0,51,0.00,,,0.09,,2013-04-18 20:12:00,
2013-04-18 16:22:00,79.0,59.0,29.75,SSW,202,7.0,10.0,51,0.00,,,0.09,,2013-04-18 20:22:00,
2013-04-18 16:32:00,79.0,60.0,29.75,SSW,202,5.0,9.0,53,0.00,,,0.09,,2013-04-18 20:32:00,
2013-04-18 16:42:00,79.0,60.0,29.74,SSW,202,6.0,12.0,53,0.00,,,0.09,,2013-04-18 20:42:00,
2013-04-18 16:52:00,79.0,60.0,29.74,SSW,202,6.0,12.0,53,0.00,,,0.09,,2013-04-18 20:52:00,
2013-04-18 17:02:00,79.0,60.0,29.74,South,180,3.0,9.0,52,0.00,,,0.09,,2013-04-18 21:02:00,
2013-04-18 17:12:00,79.0,60.0,29.74,South,180,3.0,9.0,52,0.00,,,0.09,,2013-04-18 21:12:00,
2013-04-18 17:22:00,79.0,60.0,29.74,South,180,3.0,9.0,52,0.00,,,0.09,,2013-04-18 21:22:00,
2013-04-18 17:32:00,79.0,61.0,29.72,SE,135,6.0,15.0,54,0.00,,,0.07,,2013-04-18 21:32:00,
2013-04-18 17:43:00,79.0,60.0,29.72,SE,135,8.0,14.0,53,0.00,,,0.01,,2013-04-18 21:43:00,
2013-04-18 17:53:00,79.0,60.0,29.72,SE,135,8.0,14.0,53,0.00,,,0.01,,2013-04-18 21:53:00,
2013-04-18 18:02:00,78.0,60.0,29.71,SSW,202,3.0,7.0,54,0.00,,,0.01,,2013-04-18 22:02:00,
2013-04-18 18:13:00,78.0,59.0,29.69,South,180,4.0,9.0,53,0.00,,,0.01,,2013-04-18 22:13:00,
2013-04-18 18:22:00,78.0,59.0,29.69,South,180,4.0,9.0,53,0.00,,,0.01,,2013-04-18 22:22:00,
2013-04-18 18:32:00,78.0,61.0,29.70,West,270,4.0,7.0,55,0.00,,,0.01,,2013-04-18 22:32:00,
2013-04-18 18:42:00,78.0,61.0,29.70,SW,225,3.0,6.0,55,0.00,,,0.00,,2013-04-18 22:42:00,
2013-04-18 18:52:00,78.0,61.0,29.70,SW,225,3.0,6.0,55,0.00,,,0.00,,2013-04-18 22:52:00,
2013-04-18 19:03:00,78.0,61.0,29.70,SW,225,3.0,6.0,55,0.00,,,0.00,,2013-04-18 23:03:00,
2013-04-18 19:11:00,78.0,61.0,29.67,SW,225,5.0,8.0,55,0.00,,,0.00,,2013-04-18 23:11:00,
2013-04-18 19:21:00,78.0,61.0,29.67,SW,225,5.0,8.0,55,0.00,,,0.00,,2013-04-18 23:21:00,
2013-04-18 19:32:00,77.0,60.0,29.67,SSE,157,8.0,16.0,55,0.00,,,0.00,,2013-04-18 23:32:00,
2013-04-18 19:42:00,77.0,60.0,29.67,SSE,157,4.0,9.0,55,0.00,,,0.00,,2013-04-18 23:42:00,
2013-04-18 19:52:00,77.0,60.0,29.67,SSE,157,4.0,9.0,55,0.00,,,0.00,,2013-04-18 23:52:00,
2013-04-18 20:01:00,74.0,65.0,29.70,NW,315,7.0,10.0,73,0.00,,,0.00,,2013-04-19 00:01:00,
2013-04-18 20:12:00,72.0,65.0,29.67,NW,315,1.0,3.0,78,0.00,,,0.00,,2013-04-19 00:12:00,
2013-04-18 20:21:00,72.0,65.0,29.67,NW,315,1.0,3.0,78,0.00,,,0.00,,2013-04-19 00:21:00,
2013-04-18 20:32:00,70.0,66.0,29.67,NW,315,7.0,12.0,86,0.00,,,0.00,,2013-04-19 00:32:00,
2013-04-18 20:42:00,69.0,66.0,29.67,North,360,3.0,7.0,89,0.00,,,0.00,,2013-04-19 00:42:00,
2013-04-18 20:51:00,69.0,66.0,29.67,North,360,3.0,7.0,89,0.00,,,0.00,,2013-04-19 00:51:00,
2013-04-18 21:01:00,68.0,65.0,29.67,WNW,292,4.0,6.0,91,0.00,,,0.00,,2013-04-19 01:01:00,
2013-04-18 21:11:00,67.0,66.0,29.67,WNW,292,4.0,6.0,95,0.00,,,0.00,,2013-04-19 01:11:00,
2013-04-18 21:21:00,67.0,66.0,29.67,WNW,292,4.0,6.0,95,0.00,,,0.00,,2013-04-19 01:21:00,
2013-04-18 21:32:00,67.0,66.0,29.67,NW,315,4.0,6.0,96,0.00,,,0.00,,2013-04-19 01:32:00,
2013-04-18 21:42:00,67.0,66.0,29.67,West,270,2.0,4.0,98,0.00,,,0.00,,2013-04-19 01:42:00,
2013-04-18 21:52:00,67.0,66.0,29.67,West,270,2.0,4.0,98,0.00,,,0.00,,2013-04-19 01:52:00,
2013-04-18 22:01:00,66.0,66.0,29.67,NW,315,4.0,6.0,99,0.00,,,0.00,,2013-04-19 02:01:00,
2013-04-18 22:11:00,66.0,66.0,29.67,NW,315,4.0,6.0,99,0.00,,,0.00,,2013-04-19 02:11:00,
2013-04-18 22:21:00,66.0,66.0,29.67,West,270,3.0,5.0,100,0.00,,,0.00,,2013-04-19 02:21:00,
2013-04-18 22:32:00,66.0,66.0,29.65,WNW,292,0.0,2.0,100,0.00,,,0.00,,2013-04-19 02:32:00,
2013-04-18 22:42:00,65.0,65.0,29.64,WNW,292,3.0,4.0,100,0.00,,,0.00,,2013-04-19 02:42:00,
2013-04-18 22:51:00,65.0,65.0,29.64,WNW,292,3.0,4.0,100,0.00,,,0.00,,2013-04-19 02:51:00,
2013-04-18 23:01:00,65.0,65.0,29.63,WNW,292,0.0,0.0,100,0.00,,,0.00,,2013-04-19 03:01:00,
2013-04-18 23:11:00,65.0,65.0,29.63,WNW,292,0.0,0.0,100,0.00,,,0.00,,2013-04-19 03:11:00,
2013-04-18 23:21:00,65.0,65.0,29.63,WNW,292,0.0,0.0,100,0.00,,,0.00,,2013-04-19 03:21:00,
2013-04-18 23:32:00,65.0,65.0,29.62,SE,135,0.0,2.0,100,0.00,,,0.00,,2013-04-19 03:32:00,
2013-04-18 23:43:00,64.0,64.0,29.62,SW,225,0.0,1.0,100,0.00,,,0.01,,2013-04-19 03:43:00,
2013-04-18 23:53:00,64.0,64.0,29.62,SW,225,0.0,1.0,100,0.00,,,0.01,,2013-04-19 03:53:00,